createdAt,value
2019-05-09T00:02:34.595Z,0.83
2019-05-09T00:05:03.810Z,0.62
2019-05-09T00:07:33.745Z,0.70
2019-05-09T00:10:03.958Z,0.85
2019-05-09T00:12:33.617Z,0.60
2019-05-09T00:15:04.461Z,0.70
2019-05-09T00:17:33.892Z,0.60
2019-05-09T00:20:10.150Z,1.07
2019-05-09T00:22:39.087Z,0.70
2019-05-09T00:25:08.142Z,0.80
2019-05-09T00:27:37.020Z,0.70
2019-05-09T00:30:06.392Z,1.00
2019-05-09T00:32:37.637Z,0.70
2019-05-09T00:35:36.021Z,0.90
2019-05-09T00:38:06.504Z,0.60
2019-05-09T00:40:35.402Z,0.80
2019-05-09T00:43:04.519Z,0.70
2019-05-09T00:46:04.200Z,0.70
2019-05-09T00:48:38.953Z,0.90
2019-05-09T00:51:08.256Z,0.70
2019-05-09T00:53:37.307Z,0.70
2019-05-09T00:56:06.547Z,0.70
2019-05-09T00:58:35.594Z,0.70
2019-05-09T01:01:04.723Z,0.60
2019-05-09T01:03:34.159Z,0.70
2019-05-09T01:06:04.243Z,0.70
2019-05-09T01:08:33.823Z,1.00
2019-05-09T01:11:11.368Z,0.88
2019-05-09T01:13:34.170Z,0.70
2019-05-09T01:16:04.473Z,1.13
2019-05-09T01:18:34.454Z,0.70
2019-05-09T01:21:04.131Z,0.70
2019-05-09T01:23:34.381Z,0.85
2019-05-09T01:26:04.027Z,0.82
2019-05-09T01:28:33.964Z,1.02
2019-05-09T01:31:03.991Z,1.10
2019-05-09T01:33:40.546Z,0.90
2019-05-09T01:36:09.652Z,1.20
2019-05-09T01:38:38.682Z,1.07
2019-05-09T01:41:07.635Z,0.85
2019-05-09T01:43:36.674Z,0.88
2019-05-09T01:46:05.598Z,1.10
2019-05-09T01:48:34.630Z,1.02
2019-05-09T01:51:03.610Z,1.00
2019-05-09T01:53:35.571Z,1.17
2019-05-09T01:56:04.589Z,1.10
2019-05-09T01:58:34.520Z,0.90
2019-05-09T02:01:06.885Z,1.10
2019-05-09T02:03:35.819Z,0.90
2019-05-09T02:06:05.288Z,1.13
2019-05-09T02:08:34.692Z,1.00
2019-05-09T02:11:04.057Z,1.20
2019-05-09T02:13:34.007Z,0.90
2019-05-09T02:16:20.867Z,0.95
2019-05-09T02:18:55.212Z,0.82
2019-05-09T02:21:24.181Z,1.33
2019-05-09T02:23:53.872Z,1.10
2019-05-09T02:26:23.998Z,0.90
2019-05-09T02:28:53.942Z,1.25
2019-05-09T02:31:24.417Z,1.20
2019-05-09T02:33:54.434Z,0.95
2019-05-09T02:36:23.869Z,0.90
2019-05-09T02:38:52.765Z,1.10
2019-05-09T02:41:21.804Z,0.80
2019-05-09T02:43:50.772Z,1.10
2019-05-09T02:46:29.443Z,0.93
2019-05-09T02:48:59.398Z,1.10
2019-05-09T02:51:29.174Z,1.30
2019-05-09T02:53:58.871Z,1.12
2019-05-09T02:56:29.451Z,1.22
2019-05-09T02:59:09.596Z,1.17
2019-05-09T03:02:03.938Z,1.27
2019-05-09T03:04:32.978Z,1.45
2019-05-09T03:07:02.021Z,1.37
2019-05-09T03:09:31.321Z,1.05
2019-05-09T03:12:20.486Z,1.20
2019-05-09T03:14:31.128Z,1.20
2019-05-09T03:17:00.152Z,1.30
2019-05-09T03:19:29.927Z,1.10
2019-05-09T03:22:03.295Z,1.20
2019-05-09T03:24:32.218Z,1.27
2019-05-09T03:27:08.370Z,1.40
2019-05-09T03:29:40.988Z,1.45
2019-05-09T03:32:10.015Z,1.27
2019-05-09T03:34:39.033Z,1.22
2019-05-09T03:37:08.566Z,1.47
2019-05-09T03:39:38.439Z,1.17
2019-05-09T03:42:07.972Z,1.30
2019-05-09T03:44:38.494Z,1.20
2019-05-09T03:47:17.447Z,1.40
2019-05-09T03:50:08.067Z,1.32
2019-05-09T03:52:37.299Z,1.20
2019-05-09T03:55:07.547Z,1.67
2019-05-09T03:57:39.727Z,1.10
2019-05-09T04:00:09.185Z,1.05
2019-05-09T04:02:38.398Z,1.27
2019-05-09T04:05:08.227Z,1.32
2019-05-09T04:07:38.381Z,1.30
2019-05-09T04:10:07.929Z,1.27
2019-05-09T04:12:37.534Z,1.30
2019-05-09T04:15:08.514Z,1.25
2019-05-09T04:17:44.317Z,1.10
2019-05-09T04:20:14.236Z,1.00
2019-05-09T04:22:43.604Z,1.10
2019-05-09T04:25:18.124Z,1.30
2019-05-09T04:27:48.361Z,0.82
2019-05-09T04:30:18.259Z,1.20
2019-05-09T04:32:48.162Z,1.10
2019-05-09T04:35:17.728Z,1.17
2019-05-09T04:37:48.283Z,1.00
2019-05-09T04:40:17.922Z,1.40
2019-05-09T04:42:47.389Z,1.22
2019-05-09T04:45:38.803Z,0.98
2019-05-09T04:48:08.331Z,1.07
2019-05-09T04:50:37.693Z,1.10
2019-05-09T04:53:07.995Z,1.30
2019-05-09T04:55:38.924Z,1.37
2019-05-09T04:58:09.229Z,1.20
2019-05-09T05:00:57.323Z,1.20
2019-05-09T05:03:28.269Z,1.20
2019-05-09T05:05:58.546Z,1.35
2019-05-09T05:08:29.480Z,1.20
2019-05-09T05:10:58.784Z,1.30
2019-05-09T05:13:29.740Z,1.20
2019-05-09T05:15:58.787Z,1.40
2019-05-09T05:18:28.410Z,1.10
2019-05-09T05:20:58.224Z,1.30
2019-05-09T05:23:33.455Z,1.37
2019-05-09T05:26:02.403Z,1.20
2019-05-09T05:28:31.834Z,1.17
2019-05-09T05:31:00.661Z,1.20
2019-05-09T05:33:53.012Z,1.10
2019-05-09T05:36:19.870Z,1.00
2019-05-09T05:38:48.978Z,1.17
2019-05-09T05:41:18.397Z,1.10
2019-05-09T05:43:48.030Z,1.03
2019-05-09T05:46:32.588Z,1.20
2019-05-09T05:49:01.599Z,1.97
2019-05-09T05:51:34.392Z,1.50
2019-05-09T05:54:03.836Z,1.67
2019-05-09T05:56:32.763Z,2.43
2019-05-09T05:59:01.614Z,2.20
2019-05-09T06:01:30.473Z,1.77
2019-05-09T06:03:59.708Z,1.20
2019-05-09T06:06:28.530Z,1.10
2019-05-09T06:08:58.054Z,1.10
2019-05-09T06:11:28.088Z,1.20
2019-05-09T06:14:05.140Z,0.93
2019-05-09T06:16:28.282Z,0.80
2019-05-09T06:18:58.546Z,1.10
2019-05-09T06:21:28.329Z,0.80
2019-05-09T06:23:58.433Z,0.77
2019-05-09T06:26:29.187Z,0.97
2019-05-09T06:28:58.532Z,0.73
2019-05-09T06:31:58.266Z,1.00
2019-05-09T06:34:47.554Z,0.80
2019-05-09T06:37:58.785Z,0.80
2019-05-09T06:40:28.745Z,0.93
2019-05-09T06:43:18.276Z,0.90
2019-05-09T06:46:22.275Z,0.83
2019-05-09T06:48:51.339Z,0.90
2019-05-09T06:51:39.666Z,0.80
2019-05-09T06:54:27.953Z,0.80
2019-05-09T06:56:58.505Z,1.03
2019-05-09T06:59:28.347Z,0.70
2019-05-09T07:02:57.476Z,0.70
2019-05-09T07:05:32.595Z,0.90
2019-05-09T07:08:27.429Z,1.00
2019-05-09T07:11:19.799Z,0.80
2019-05-09T07:14:32.293Z,0.57
2019-05-09T07:16:58.407Z,0.80
2019-05-09T07:19:28.074Z,0.83
2019-05-09T07:22:39.180Z,0.80
2019-05-09T07:25:31.851Z,0.80
2019-05-09T07:28:20.323Z,0.90
2019-05-09T07:31:14.198Z,0.90
2019-05-09T07:33:50.409Z,0.80
2019-05-09T07:36:30.665Z,0.90
2019-05-09T07:39:18.709Z,0.77
2019-05-09T07:41:47.958Z,0.83
2019-05-09T07:44:20.093Z,0.97
2019-05-09T07:46:57.898Z,0.80
2019-05-09T07:49:28.329Z,0.80
2019-05-09T07:51:59.102Z,0.70
2019-05-09T07:54:29.278Z,0.70
2019-05-09T07:57:19.303Z,0.70
2019-05-09T07:59:48.224Z,0.60
2019-05-09T08:02:57.971Z,0.63
2019-05-09T08:05:29.183Z,0.70
2019-05-09T08:07:58.736Z,0.90
2019-05-09T08:10:50.087Z,1.00
2019-05-09T08:13:21.576Z,0.50
2019-05-09T08:15:55.323Z,0.87
2019-05-09T08:18:24.258Z,0.60
2019-05-09T08:20:53.504Z,1.07
2019-05-09T08:23:22.418Z,0.60
2019-05-09T08:25:57.725Z,1.10
2019-05-09T08:28:48.581Z,0.93
2019-05-09T08:31:40.380Z,0.63
2019-05-09T08:34:09.498Z,0.70
2019-05-09T08:36:58.183Z,0.70
2019-05-09T08:39:27.938Z,0.70
2019-05-09T08:42:18.021Z,0.80
2019-05-09T08:44:48.203Z,1.10
2019-05-09T08:47:57.743Z,0.90
2019-05-09T08:50:44.049Z,0.97
2019-05-09T08:53:32.250Z,1.00
2019-05-09T08:56:04.552Z,0.80
2019-05-09T08:59:02.488Z,0.83
2019-05-09T09:01:50.078Z,0.80
2019-05-09T09:04:02.549Z,1.00
2019-05-09T09:06:50.659Z,0.80
2019-05-09T09:09:53.512Z,1.10
2019-05-09T09:12:30.575Z,0.93
2019-05-09T09:14:53.223Z,0.90
2019-05-09T09:17:41.326Z,1.10
2019-05-09T09:20:29.815Z,0.73
2019-05-09T09:23:18.230Z,1.00
2019-05-09T09:25:48.798Z,0.87
2019-05-09T09:28:18.378Z,0.87
2019-05-09T09:31:17.854Z,0.70
2019-05-09T09:33:48.019Z,0.70
2019-05-09T09:36:18.057Z,0.77
2019-05-09T09:38:48.091Z,0.60
2019-05-09T09:41:18.183Z,0.63
2019-05-09T09:44:08.785Z,0.60
2019-05-09T09:46:47.810Z,0.50
2019-05-09T09:49:38.177Z,0.50
2019-05-09T09:52:08.521Z,1.17
2019-05-09T09:54:58.227Z,0.90
2019-05-09T09:57:28.869Z,0.40
2019-05-09T10:00:51.091Z,0.60
2019-05-09T10:03:47.676Z,0.87
2019-05-09T10:06:28.298Z,0.37
2019-05-09T10:09:17.351Z,0.53
2019-05-09T10:11:48.136Z,0.40
2019-05-09T10:14:21.762Z,0.40
2019-05-09T10:17:31.731Z,0.73
2019-05-09T10:20:22.264Z,0.40
2019-05-09T10:23:29.470Z,0.60
2019-05-09T10:25:58.563Z,0.63
2019-05-09T10:28:48.566Z,0.20
2019-05-09T10:31:17.285Z,0.40
2019-05-09T10:34:28.828Z,0.60
2019-05-09T10:37:00.237Z,0.40
2019-05-09T10:39:58.098Z,0.50
2019-05-09T10:42:40.947Z,0.47
2019-05-09T10:45:24.940Z,0.50
2019-05-09T10:47:53.834Z,0.60
2019-05-09T10:50:23.144Z,0.40
2019-05-09T10:52:52.619Z,0.40
2019-05-09T10:55:21.619Z,0.50
2019-05-09T10:57:52.679Z,0.63
2019-05-09T11:00:21.683Z,0.30
2019-05-09T11:02:50.655Z,0.50
2019-05-09T11:05:19.638Z,0.40
2019-05-09T11:07:49.703Z,0.50
2019-05-09T11:10:25.936Z,0.40
2019-05-09T11:12:49.259Z,0.30
2019-05-09T11:15:18.239Z,0.43
2019-05-09T11:17:47.521Z,0.40
2019-05-09T11:20:19.424Z,0.40
2019-05-09T11:22:47.478Z,0.40
2019-05-09T11:25:16.429Z,0.50
2019-05-09T11:27:45.601Z,0.40
2019-05-09T11:30:14.598Z,0.40
2019-05-09T11:32:43.512Z,0.30
2019-05-09T11:35:12.532Z,0.30
2019-05-09T11:37:41.560Z,0.50
2019-05-09T11:40:10.603Z,0.30
2019-05-09T11:42:39.855Z,0.30
2019-05-09T11:45:10.023Z,0.20
2019-05-09T11:47:45.881Z,0.30
2019-05-09T11:50:09.810Z,0.30
2019-05-09T11:52:38.771Z,0.40
2019-05-09T11:55:15.495Z,0.80
2019-05-09T11:57:38.714Z,0.60
2019-05-09T12:00:08.517Z,0.40
2019-05-09T12:02:38.448Z,0.20
2019-05-09T12:05:08.839Z,0.20
2019-05-09T12:07:38.189Z,0.30
2019-05-09T12:10:08.005Z,0.78
2019-05-09T12:12:39.064Z,0.20
2019-05-09T12:15:08.983Z,0.40
2019-05-09T12:17:51.021Z,0.40
2019-05-09T12:20:13.073Z,0.33
2019-05-09T12:22:39.284Z,0.33
2019-05-09T12:25:08.694Z,0.30
2019-05-09T12:27:37.927Z,0.40
2019-05-09T12:30:07.044Z,0.43
2019-05-09T12:32:38.327Z,0.40
2019-05-09T12:35:08.919Z,0.37
2019-05-09T12:37:38.148Z,0.40
2019-05-09T12:40:08.341Z,0.30
2019-05-09T12:42:39.171Z,0.30
2019-05-09T12:45:09.022Z,0.30
2019-05-09T12:47:39.671Z,0.40
2019-05-09T12:50:09.025Z,0.53
2019-05-09T12:52:39.268Z,0.67
2019-05-09T12:55:08.571Z,0.47
2019-05-09T12:57:38.631Z,0.40
2019-05-09T13:00:08.495Z,0.30
2019-05-09T13:02:38.813Z,0.50
2019-05-09T13:05:08.189Z,0.30
2019-05-09T13:07:39.992Z,0.30
2019-05-09T13:10:08.938Z,0.43
2019-05-09T13:12:38.948Z,0.37
2019-05-09T13:15:11.164Z,0.43
2019-05-09T13:17:42.224Z,0.50
2019-05-09T13:20:12.487Z,0.40
2019-05-09T13:22:41.543Z,0.47
2019-05-09T13:25:10.985Z,0.40
2019-05-09T13:27:40.014Z,0.43
2019-05-09T13:30:10.494Z,0.20
2019-05-09T13:32:39.754Z,0.30
2019-05-09T13:35:09.027Z,0.50
2019-05-09T13:37:38.482Z,0.30
2019-05-09T13:40:08.560Z,0.40
2019-05-09T13:42:39.582Z,0.40
2019-05-09T13:45:08.690Z,0.67
2019-05-09T13:47:38.145Z,0.30
2019-05-09T13:50:08.949Z,0.45
2019-05-09T13:52:38.241Z,0.50
2019-05-09T13:55:08.742Z,0.40
2019-05-09T13:57:37.889Z,0.30
2019-05-09T14:00:09.004Z,0.30
2019-05-09T14:02:38.595Z,0.20
2019-05-09T14:05:08.935Z,0.30
2019-05-09T14:07:38.331Z,0.30
2019-05-09T14:10:10.175Z,0.33
2019-05-09T14:12:38.696Z,0.50
2019-05-09T14:15:08.547Z,0.25
2019-05-09T14:17:49.280Z,0.10
2019-05-09T14:20:09.031Z,0.20
2019-05-09T14:22:38.729Z,0.20
2019-05-09T14:25:11.637Z,0.30
2019-05-09T14:27:39.965Z,0.20
2019-05-09T14:30:09.713Z,0.30
2019-05-09T14:32:40.082Z,0.43
2019-05-09T14:35:09.975Z,0.40
2019-05-09T14:37:39.260Z,0.50
2019-05-09T14:40:10.340Z,0.43
2019-05-09T14:42:40.525Z,0.30
2019-05-09T14:45:09.932Z,0.50
2019-05-09T14:47:42.276Z,0.30
2019-05-09T14:50:10.224Z,0.50
2019-05-09T14:52:39.807Z,0.30
2019-05-09T14:55:09.187Z,0.40
2019-05-09T14:57:38.516Z,0.20
2019-05-09T15:00:08.582Z,0.30
2019-05-09T15:02:38.888Z,0.30
2019-05-09T15:05:09.480Z,0.60
2019-05-09T15:07:39.135Z,0.43
2019-05-09T15:10:09.003Z,0.40
2019-05-09T15:12:39.121Z,0.30
2019-05-09T15:15:08.801Z,0.30
2019-05-09T15:17:37.774Z,0.30
2019-05-09T15:20:08.837Z,0.30
2019-05-09T15:22:38.829Z,0.30
2019-05-09T15:25:08.917Z,0.40
2019-05-09T15:27:38.650Z,0.40
2019-05-09T15:30:08.178Z,0.30
2019-05-09T15:32:37.762Z,0.40
2019-05-09T15:35:09.033Z,0.70
2019-05-09T15:37:38.860Z,0.50
2019-05-09T15:40:09.196Z,0.40
2019-05-09T15:42:39.154Z,0.40
2019-05-09T15:45:09.348Z,0.47
2019-05-09T15:47:38.442Z,0.50
2019-05-09T15:50:18.826Z,0.33
2019-05-09T15:52:38.979Z,0.40
2019-05-09T15:55:09.580Z,0.50
2019-05-09T15:57:38.914Z,0.60
2019-05-09T16:00:11.566Z,0.40
2019-05-09T16:02:40.555Z,0.40
2019-05-09T16:05:10.745Z,0.53
2019-05-09T16:07:39.796Z,0.50
2019-05-09T16:10:09.331Z,0.50
2019-05-09T16:12:38.558Z,0.40
2019-05-09T16:15:08.278Z,0.40
2019-05-09T16:17:39.273Z,0.57
2019-05-09T16:20:08.883Z,0.60
2019-05-09T16:22:39.259Z,0.40
2019-05-09T16:25:08.671Z,0.40
2019-05-09T16:27:38.097Z,0.50
2019-05-09T16:30:08.616Z,0.70
2019-05-09T16:32:38.023Z,0.40
2019-05-09T16:35:08.201Z,0.40
2019-05-09T16:37:56.837Z,0.70
2019-05-09T16:40:08.593Z,0.50
2019-05-09T16:42:38.166Z,0.60
2019-05-09T16:45:09.012Z,0.70
2019-05-09T16:47:38.095Z,0.70
2019-05-09T16:50:11.510Z,0.70
2019-05-09T16:52:43.067Z,0.50
2019-05-09T16:55:13.914Z,0.67
2019-05-09T16:57:43.356Z,0.40
2019-05-09T17:00:18.398Z,0.67
2019-05-09T17:02:48.263Z,0.60
2019-05-09T17:05:17.531Z,0.50
2019-05-09T17:07:47.631Z,0.50
2019-05-09T17:10:17.804Z,0.60
2019-05-09T17:12:47.868Z,0.70
2019-05-09T17:15:22.239Z,0.70
2019-05-09T17:17:51.384Z,0.33
2019-05-09T17:20:23.832Z,0.60
2019-05-09T17:23:14.841Z,0.40
2019-05-09T17:25:41.428Z,0.40
2019-05-09T17:28:10.539Z,0.80
2019-05-09T17:30:39.618Z,0.50
2019-05-09T17:33:08.630Z,0.67
2019-05-09T17:35:38.634Z,0.50
2019-05-09T17:38:08.848Z,0.40
2019-05-09T17:40:39.363Z,0.50
2019-05-09T17:43:08.532Z,0.50
2019-05-09T17:45:41.365Z,0.50
2019-05-09T17:48:08.722Z,0.40
2019-05-09T17:50:38.463Z,0.40
2019-05-09T17:53:08.619Z,0.60
2019-05-09T17:55:38.363Z,0.60
2019-05-09T17:58:08.758Z,0.40
2019-05-09T18:00:38.239Z,0.40
2019-05-09T18:03:07.279Z,0.30
2019-05-09T18:05:38.950Z,0.60
2019-05-09T18:08:08.276Z,0.53
2019-05-09T18:10:38.177Z,0.70
2019-05-09T18:13:08.030Z,0.50
2019-05-09T18:15:37.982Z,0.57
2019-05-09T18:18:07.120Z,0.60
2019-05-09T18:20:37.925Z,0.60
2019-05-09T18:23:08.237Z,0.70
2019-05-09T18:25:38.013Z,0.50
2019-05-09T18:28:07.223Z,0.70
2019-05-09T18:30:38.774Z,0.70
2019-05-09T18:33:32.712Z,0.50
2019-05-09T18:36:01.941Z,0.50
2019-05-09T18:38:33.652Z,0.67
2019-05-09T18:41:06.453Z,0.50
2019-05-09T18:43:33.965Z,0.70
2019-05-09T18:46:03.291Z,0.90
2019-05-09T18:48:32.357Z,0.67
2019-05-09T18:51:01.321Z,0.90
2019-05-09T18:53:30.460Z,0.70
2019-05-09T18:55:59.465Z,0.73
2019-05-09T18:58:28.728Z,0.87
2019-05-09T19:00:57.711Z,0.70
2019-05-09T19:03:26.810Z,0.70
2019-05-09T19:05:55.892Z,0.90
2019-05-09T19:08:25.373Z,0.87
2019-05-09T19:10:54.376Z,0.67
2019-05-09T19:13:23.374Z,0.70
2019-05-09T19:15:59.449Z,0.60
2019-05-09T19:18:50.280Z,0.60
2019-05-09T19:21:23.540Z,0.97
2019-05-09T19:23:52.471Z,1.20
2019-05-09T19:26:36.928Z,1.00
2019-05-09T19:29:07.959Z,1.20
2019-05-09T19:31:37.987Z,2.00
2019-05-09T19:34:07.536Z,1.50
2019-05-09T19:36:37.251Z,1.10
2019-05-09T19:39:10.130Z,1.00
2019-05-09T19:41:39.173Z,1.27
2019-05-09T19:44:08.131Z,1.73
2019-05-09T19:46:37.437Z,1.60
2019-05-09T19:49:06.544Z,1.20
2019-05-09T19:51:36.093Z,0.90
2019-05-09T19:54:05.467Z,1.03
2019-05-09T19:56:34.518Z,0.60
2019-05-09T19:59:07.006Z,0.53
2019-05-09T20:01:34.374Z,0.60
2019-05-09T20:04:03.460Z,0.87
2019-05-09T20:06:32.412Z,0.90
2019-05-09T20:09:01.574Z,0.97
2019-05-09T20:11:52.448Z,0.90
2019-05-09T20:14:29.646Z,0.80
2019-05-09T20:16:58.563Z,0.87
2019-05-09T20:19:27.584Z,0.87
2019-05-09T20:21:56.657Z,0.77
2019-05-09T20:24:25.671Z,1.07
2019-05-09T20:26:55.034Z,1.10
2019-05-09T20:29:24.061Z,1.97
2019-05-09T20:31:53.083Z,2.00
2019-05-09T20:34:22.507Z,2.27
2019-05-09T20:36:51.502Z,1.93
2019-05-09T20:39:20.903Z,1.80
2019-05-09T20:41:50.189Z,1.40
2019-05-09T20:44:19.340Z,1.57
2019-05-09T20:46:48.504Z,1.40
2019-05-09T20:49:17.758Z,1.40
2019-05-09T20:51:46.799Z,1.50
2019-05-09T20:54:20.885Z,1.63
2019-05-09T20:56:46.852Z,1.50
2019-05-09T20:59:15.957Z,1.70
2019-05-09T21:01:45.107Z,2.00
2019-05-09T21:04:14.586Z,2.07
2019-05-09T21:06:43.761Z,2.20
2019-05-09T21:09:12.934Z,2.10
2019-05-09T21:11:42.113Z,2.40
2019-05-09T21:14:11.234Z,2.67
2019-05-09T21:16:40.381Z,2.47
2019-05-09T21:19:09.542Z,2.20
2019-05-09T21:21:38.700Z,2.13
2019-05-09T21:24:07.888Z,2.23
2019-05-09T21:26:37.070Z,1.90
2019-05-09T21:29:06.286Z,2.00
2019-05-09T21:31:35.812Z,1.83
2019-05-09T21:34:05.072Z,1.70
2019-05-09T21:36:34.080Z,1.50
2019-05-09T21:39:04.520Z,2.00
2019-05-09T21:41:33.553Z,1.80
2019-05-09T21:44:02.617Z,1.87
2019-05-09T21:46:31.615Z,1.57
2019-05-09T21:49:00.612Z,1.80
2019-05-09T21:51:29.644Z,2.10
2019-05-09T21:53:58.593Z,1.90
2019-05-09T21:56:27.602Z,2.00
2019-05-09T21:58:56.631Z,2.03
2019-05-09T22:01:26.163Z,2.13
2019-05-09T22:03:55.147Z,1.67
2019-05-09T22:06:24.187Z,2.33
2019-05-09T22:08:53.150Z,2.50
2019-05-09T22:11:22.040Z,2.30
2019-05-09T22:13:51.016Z,1.97
2019-05-09T22:16:20.091Z,2.53
2019-05-09T22:18:49.162Z,2.57
2019-05-09T22:21:24.405Z,2.70
2019-05-09T22:23:57.166Z,2.50
2019-05-09T22:26:23.986Z,2.73
2019-05-09T22:28:52.828Z,2.40
2019-05-09T22:31:21.891Z,2.53
2019-05-09T22:33:50.922Z,2.13
2019-05-09T22:36:19.951Z,2.43
2019-05-09T22:38:48.961Z,2.73
2019-05-09T22:41:18.221Z,2.30
2019-05-09T22:43:47.239Z,2.37
2019-05-09T22:46:16.227Z,2.40
2019-05-09T22:48:45.494Z,2.60
2019-05-09T22:51:14.523Z,1.93
2019-05-09T22:53:43.582Z,2.00
2019-05-09T22:56:12.887Z,2.10
2019-05-09T22:58:41.914Z,1.97
2019-05-09T23:01:11.231Z,2.03
2019-05-09T23:03:40.263Z,1.97
2019-05-09T23:06:09.195Z,1.80
2019-05-09T23:08:38.117Z,2.07
2019-05-09T23:11:07.410Z,2.20
2019-05-09T23:13:54.759Z,1.80
2019-05-09T23:16:24.673Z,1.70
2019-05-09T23:18:54.131Z,1.70
2019-05-09T23:21:24.048Z,2.10
2019-05-09T23:23:59.510Z,1.87
2019-05-09T23:26:28.718Z,1.57
2019-05-09T23:28:57.804Z,1.67
2019-05-09T23:31:41.094Z,1.50
2019-05-09T23:34:10.298Z,1.60
2019-05-09T23:36:39.319Z,1.23
2019-05-09T23:39:12.511Z,1.57
2019-05-09T23:41:41.480Z,1.70
2019-05-09T23:44:10.648Z,1.50
2019-05-09T23:46:39.649Z,1.40
2019-05-09T23:49:08.615Z,1.50
2019-05-09T23:51:45.116Z,1.43
2019-05-09T23:54:45.289Z,1.30
2019-05-09T23:57:22.540Z,1.33
